createdAt,value
2023-01-15T00:01:52.817Z,97212.81
2023-01-15T00:04:19.551Z,97217.44
2023-01-15T00:06:46.203Z,97203.53
2023-01-15T00:09:16.150Z,97200.44
2023-01-15T00:11:42.935Z,97191.34
2023-01-15T00:14:09.742Z,97183.41
2023-01-15T00:16:36.512Z,97188.53
2023-01-15T00:19:04.647Z,97181.44
2023-01-15T00:21:31.855Z,97168.88
2023-01-15T00:24:17.092Z,97165.59
2023-01-15T00:27:02.723Z,97155.34
2023-01-15T00:29:29.610Z,97151.72
2023-01-15T00:32:04.256Z,97148.72
2023-01-15T00:34:31.653Z,97156.03
2023-01-15T00:36:59.283Z,97159.00
2023-01-15T00:39:26.876Z,97170.25
2023-01-15T00:41:54.807Z,97171.22
2023-01-15T00:44:21.841Z,97163.94
2023-01-15T00:46:49.063Z,97151.75
2023-01-15T00:49:16.287Z,97163.94
2023-01-15T00:51:42.989Z,97168.25
2023-01-15T00:54:09.723Z,97160.66
2023-01-15T00:56:36.804Z,97161.78
2023-01-15T00:59:05.189Z,97150.91
2023-01-15T01:01:32.109Z,97149.91
2023-01-15T01:03:59.165Z,97157.69
2023-01-15T01:06:25.868Z,97145.44
2023-01-15T01:08:52.559Z,97157.03
2023-01-15T01:11:24.050Z,97135.19
2023-01-15T01:13:50.972Z,97144.47
2023-01-15T01:16:25.466Z,97142.47
2023-01-15T01:18:53.092Z,97138.53
2023-01-15T01:21:19.775Z,97134.38
2023-01-15T01:23:46.680Z,97124.94
2023-01-15T01:26:14.089Z,97142.66
2023-01-15T01:28:41.643Z,97145.63
2023-01-15T01:31:09.283Z,97147.44
2023-01-15T01:33:36.105Z,97149.56
2023-01-15T01:36:03.067Z,97138.50
2023-01-15T01:38:29.784Z,97133.91
2023-01-15T01:40:56.527Z,97128.94
2023-01-15T01:43:28.486Z,97128.25
2023-01-15T01:45:55.444Z,97133.41
2023-01-15T01:48:28.521Z,97142.47
2023-01-15T01:50:58.043Z,97153.72
2023-01-15T01:53:28.933Z,97151.25
2023-01-15T01:55:57.283Z,97160.34
2023-01-15T01:58:28.190Z,97150.44
2023-01-15T02:00:54.969Z,97159.34
2023-01-15T02:03:25.825Z,97173.22
2023-01-15T02:05:58.802Z,97182.44
2023-01-15T02:08:25.471Z,97180.75
2023-01-15T02:10:56.418Z,97188.91
2023-01-15T02:13:31.675Z,97186.84
2023-01-15T02:16:07.352Z,97206.94
2023-01-15T02:18:45.417Z,97206.59
2023-01-15T02:21:12.009Z,97215.50
2023-01-15T02:24:00.368Z,97208.69
2023-01-15T02:26:55.307Z,97219.88
2023-01-15T02:29:48.760Z,97210.25
2023-01-15T02:32:25.137Z,97224.88
2023-01-15T02:34:57.290Z,97223.56
2023-01-15T02:37:32.825Z,97239.69
2023-01-15T02:40:03.080Z,97234.19
2023-01-15T02:42:31.446Z,97242.28
2023-01-15T02:45:02.851Z,97246.88
2023-01-15T02:47:34.478Z,97251.94
2023-01-15T02:50:06.429Z,97256.69
2023-01-15T02:52:37.973Z,97263.25
2023-01-15T02:55:11.485Z,97263.56
2023-01-15T02:57:42.211Z,97265.59
2023-01-15T03:00:13.143Z,97271.84
2023-01-15T03:02:46.315Z,97276.06
2023-01-15T03:05:22.509Z,97273.28
2023-01-15T03:08:01.856Z,97271.63
2023-01-15T03:10:43.818Z,97271.63
2023-01-15T03:13:17.120Z,97266.13
2023-01-15T03:16:08.468Z,97266.72
2023-01-15T03:19:05.811Z,97268.00
2023-01-15T03:21:47.795Z,97268.16
2023-01-15T03:24:37.587Z,97273.13
2023-01-15T03:27:04.395Z,97284.34
2023-01-15T03:29:36.382Z,97283.50
2023-01-15T03:32:03.133Z,97290.00
2023-01-15T03:34:56.381Z,97293.91
2023-01-15T03:37:25.357Z,97299.56
2023-01-15T03:39:53.093Z,97298.50
2023-01-15T03:42:45.693Z,97288.28
2023-01-15T03:45:25.297Z,97291.50
2023-01-15T03:48:29.187Z,97298.34
2023-01-15T03:51:22.937Z,97300.19
2023-01-15T03:53:53.545Z,97306.03
2023-01-15T03:56:37.666Z,97319.03
2023-01-15T03:59:12.372Z,97312.19
2023-01-15T04:01:42.400Z,97304.91
2023-01-15T04:04:11.449Z,97312.97
2023-01-15T04:06:40.335Z,97309.53
2023-01-15T04:09:10.126Z,97317.56
2023-01-15T04:11:37.177Z,97332.44
2023-01-15T04:14:04.327Z,97325.66
2023-01-15T04:16:32.269Z,97328.88
2023-01-15T04:18:58.938Z,97327.50
2023-01-15T04:21:25.797Z,97347.16
2023-01-15T04:23:52.421Z,97347.75
2023-01-15T04:26:19.337Z,97347.31
2023-01-15T04:28:46.005Z,97353.72
2023-01-15T04:31:13.285Z,97352.19
2023-01-15T04:33:40.163Z,97363.97
2023-01-15T04:36:07.494Z,97353.28
2023-01-15T04:38:34.305Z,97347.50
2023-01-15T04:41:21.275Z,97370.72
2023-01-15T04:44:06.740Z,97374.34
2023-01-15T04:46:39.376Z,97371.56
2023-01-15T04:49:13.208Z,97369.50
2023-01-15T04:51:40.213Z,97381.94
2023-01-15T04:54:09.003Z,97384.56
2023-01-15T04:56:44.725Z,97382.06
2023-01-15T04:59:11.471Z,97386.78
2023-01-15T05:01:38.634Z,97394.78
2023-01-15T05:04:05.828Z,97413.00
2023-01-15T05:06:32.545Z,97421.97
2023-01-15T05:09:02.538Z,97425.16
2023-01-15T05:11:29.411Z,97424.28
2023-01-15T05:13:56.414Z,97428.41
2023-01-15T05:16:26.080Z,97430.91
2023-01-15T05:18:54.540Z,97436.16
2023-01-15T05:21:26.716Z,97436.06
2023-01-15T05:23:55.139Z,97442.81
2023-01-15T05:26:22.447Z,97446.91
2023-01-15T05:28:49.884Z,97437.38
2023-01-15T05:31:18.684Z,97432.13
2023-01-15T05:33:47.148Z,97441.53
2023-01-15T05:36:17.602Z,97451.41
2023-01-15T05:38:44.539Z,97444.38
2023-01-15T05:41:37.950Z,97447.28
2023-01-15T05:44:08.207Z,97443.34
2023-01-15T05:46:36.340Z,97448.78
2023-01-15T05:49:05.974Z,97448.66
2023-01-15T05:51:36.996Z,97442.97
2023-01-15T05:54:05.343Z,97440.22
2023-01-15T05:56:32.173Z,97429.47
2023-01-15T05:58:58.796Z,97447.50
2023-01-15T06:01:25.429Z,97452.91
2023-01-15T06:03:55.987Z,97454.38
2023-01-15T06:06:22.722Z,97446.91
2023-01-15T06:08:49.368Z,97456.84
2023-01-15T06:11:16.114Z,97465.41
2023-01-15T06:13:42.747Z,97465.22
2023-01-15T06:16:13.405Z,97455.56
2023-01-15T06:18:40.984Z,97459.53
2023-01-15T06:21:10.410Z,97473.34
2023-01-15T06:23:37.143Z,97471.22
2023-01-15T06:26:06.454Z,97471.50
2023-01-15T06:28:33.792Z,97461.47
2023-01-15T06:31:04.065Z,97469.00
2023-01-15T06:33:30.693Z,97470.31
2023-01-15T06:35:57.331Z,97474.72
2023-01-15T06:38:23.951Z,97477.59
2023-01-15T06:40:50.563Z,97485.31
2023-01-15T06:43:35.676Z,97489.63
2023-01-15T06:46:20.777Z,97479.03
2023-01-15T06:48:47.598Z,97482.31
2023-01-15T06:51:18.979Z,97489.00
2023-01-15T06:53:45.617Z,97474.84
2023-01-15T06:56:14.370Z,97477.97
2023-01-15T06:58:42.518Z,97475.34
2023-01-15T07:01:15.634Z,97471.03
2023-01-15T07:03:42.418Z,97465.81
2023-01-15T07:06:13.568Z,97477.97
2023-01-15T07:08:40.620Z,97487.25
2023-01-15T07:11:09.679Z,97476.53
2023-01-15T07:13:37.220Z,97473.69
2023-01-15T07:16:05.370Z,97474.66
2023-01-15T07:18:33.679Z,97479.16
2023-01-15T07:21:00.853Z,97468.69
2023-01-15T07:23:28.305Z,97472.03
2023-01-15T07:25:55.552Z,97470.84
2023-01-15T07:28:24.430Z,97472.06
2023-01-15T07:30:51.062Z,97474.66
2023-01-15T07:33:17.884Z,97480.84
2023-01-15T07:35:44.562Z,97484.31
2023-01-15T07:38:11.224Z,97485.88
2023-01-15T07:40:39.009Z,97489.56
2023-01-15T07:43:24.093Z,97482.41
2023-01-15T07:46:09.551Z,97495.00
2023-01-15T07:48:54.766Z,97503.72
2023-01-15T07:51:21.421Z,97512.19
2023-01-15T07:53:48.191Z,97502.38
2023-01-15T07:56:15.153Z,97509.19
2023-01-15T07:58:41.852Z,97503.22
2023-01-15T08:01:08.667Z,97529.19
2023-01-15T08:03:35.508Z,97521.34
2023-01-15T08:06:02.303Z,97521.09
2023-01-15T08:08:29.028Z,97519.44
2023-01-15T08:11:14.231Z,97527.78
2023-01-15T08:13:59.475Z,97522.53
2023-01-15T08:16:26.191Z,97527.50
2023-01-15T08:18:52.842Z,97533.00
2023-01-15T08:21:19.626Z,97524.88
2023-01-15T08:23:47.672Z,97542.66
2023-01-15T08:26:14.252Z,97560.16
2023-01-15T08:28:40.905Z,97554.66
2023-01-15T08:31:08.619Z,97563.25
2023-01-15T08:33:35.521Z,97564.69
2023-01-15T08:36:02.634Z,97557.53
2023-01-15T08:38:29.518Z,97560.88
2023-01-15T08:40:59.277Z,97561.47
2023-01-15T08:43:31.527Z,97571.09
2023-01-15T08:46:02.876Z,97577.06
2023-01-15T08:48:31.584Z,97583.50
2023-01-15T08:50:58.679Z,97570.75
2023-01-15T08:53:25.465Z,97572.88
2023-01-15T08:55:52.122Z,97573.97
2023-01-15T08:58:18.819Z,97582.53
2023-01-15T09:00:45.459Z,97577.44
2023-01-15T09:03:12.070Z,97581.34
2023-01-15T09:05:38.726Z,97583.97
2023-01-15T09:08:07.142Z,97590.16
2023-01-15T09:10:34.855Z,97583.13
2023-01-15T09:13:03.034Z,97582.31
2023-01-15T09:15:31.039Z,97585.88
2023-01-15T09:17:58.216Z,97580.63
2023-01-15T09:20:25.728Z,97589.22
2023-01-15T09:22:52.858Z,97594.81
2023-01-15T09:25:20.225Z,97606.13
2023-01-15T09:27:49.073Z,97599.09
2023-01-15T09:30:20.695Z,97609.47
2023-01-15T09:32:48.143Z,97613.28
2023-01-15T09:35:15.589Z,97611.50
2023-01-15T09:37:42.260Z,97605.41
2023-01-15T09:40:40.763Z,97586.97
2023-01-15T09:43:26.386Z,97597.66
2023-01-15T09:46:09.001Z,97613.50
2023-01-15T09:48:53.519Z,97613.03
2023-01-15T09:51:38.873Z,97621.16
2023-01-15T09:54:24.940Z,97613.03
2023-01-15T09:56:51.966Z,97611.38
2023-01-15T09:59:26.799Z,97609.47
2023-01-15T10:01:53.963Z,97612.34
2023-01-15T10:04:37.340Z,97621.16
2023-01-15T10:07:18.720Z,97621.63
2023-01-15T10:09:48.940Z,97617.22
2023-01-15T10:12:36.002Z,97608.53
2023-01-15T10:15:48.132Z,97612.94
2023-01-15T10:18:21.340Z,97612.78
2023-01-15T10:21:07.598Z,97615.44
2023-01-15T10:23:56.264Z,97605.06
2023-01-15T10:26:22.811Z,97593.97
2023-01-15T10:28:57.493Z,97601.81
2023-01-15T10:31:35.933Z,97609.47
2023-01-15T10:34:36.509Z,97607.31
2023-01-15T10:37:17.378Z,97613.88
2023-01-15T10:40:02.163Z,97619.22
2023-01-15T10:42:56.039Z,97617.06
2023-01-15T10:45:38.147Z,97624.25
2023-01-15T10:48:14.236Z,97622.94
2023-01-15T10:50:42.495Z,97632.59
2023-01-15T10:53:27.721Z,97617.56
2023-01-15T10:56:03.061Z,97627.34
2023-01-15T10:59:12.141Z,97623.88
2023-01-15T11:01:40.826Z,97628.19
2023-01-15T11:04:15.164Z,97635.66
2023-01-15T11:06:42.486Z,97631.84
2023-01-15T11:09:21.271Z,97627.81
2023-01-15T11:11:59.859Z,97617.56
2023-01-15T11:15:00.860Z,97629.00
2023-01-15T11:17:56.752Z,97631.38
2023-01-15T11:20:55.825Z,97638.03
2023-01-15T11:23:23.354Z,97621.50
2023-01-15T11:25:57.765Z,97628.03
2023-01-15T11:28:43.298Z,97624.94
2023-01-15T11:31:12.379Z,97621.84
2023-01-15T11:33:39.600Z,97628.28
2023-01-15T11:36:19.826Z,97615.06
2023-01-15T11:38:50.852Z,97612.56
2023-01-15T11:41:46.147Z,97616.50
2023-01-15T11:44:32.548Z,97611.38
2023-01-15T11:47:17.528Z,97604.69
2023-01-15T11:50:13.700Z,97606.63
2023-01-15T11:52:55.020Z,97620.19
2023-01-15T11:55:24.927Z,97621.25
2023-01-15T11:57:52.837Z,97617.31
2023-01-15T12:00:24.103Z,97614.06
2023-01-15T12:03:02.919Z,97613.03
2023-01-15T12:05:33.425Z,97611.13
2023-01-15T12:08:13.888Z,97608.22
2023-01-15T12:11:21.026Z,97622.06
2023-01-15T12:14:02.445Z,97620.13
2023-01-15T12:16:58.859Z,97622.31
2023-01-15T12:19:30.876Z,97617.06
2023-01-15T12:22:03.687Z,97613.44
2023-01-15T12:24:48.720Z,97604.13
2023-01-15T12:27:41.422Z,97617.50
2023-01-15T12:30:14.373Z,97609.38
2023-01-15T12:32:46.890Z,97606.16
2023-01-15T12:35:25.666Z,97609.84
2023-01-15T12:38:13.099Z,97612.81
2023-01-15T12:41:12.045Z,97607.28
2023-01-15T12:43:57.364Z,97604.53
2023-01-15T12:46:29.243Z,97595.00
2023-01-15T12:49:09.801Z,97595.06
2023-01-15T12:51:49.297Z,97591.81
2023-01-15T12:54:24.311Z,97596.84
2023-01-15T12:57:02.780Z,97583.25
2023-01-15T12:59:42.291Z,97606.16
2023-01-15T13:02:11.686Z,97599.25
2023-01-15T13:04:38.153Z,97594.94
2023-01-15T13:07:19.668Z,97613.09
2023-01-15T13:09:55.561Z,97605.22
2023-01-15T13:12:22.216Z,97606.88
2023-01-15T13:14:50.751Z,97597.00
2023-01-15T13:17:27.677Z,97601.13
2023-01-15T13:20:22.154Z,97614.38
2023-01-15T13:23:26.686Z,97628.06
2023-01-15T13:26:07.552Z,97620.06
2023-01-15T13:29:11.768Z,97612.06
2023-01-15T13:32:03.010Z,97628.00
2023-01-15T13:35:10.040Z,97637.66
2023-01-15T13:37:43.590Z,97648.72
2023-01-15T13:40:35.500Z,97644.91
2023-01-15T13:43:04.686Z,97650.16
2023-01-15T13:45:43.716Z,97650.06
2023-01-15T13:48:24.112Z,97654.81
2023-01-15T13:50:59.231Z,97652.47
2023-01-15T13:53:37.197Z,97653.66
2023-01-15T13:56:09.915Z,97661.41
2023-01-15T13:58:51.695Z,97662.47
2023-01-15T14:01:18.803Z,97675.78
2023-01-15T14:04:05.928Z,97676.00
2023-01-15T14:06:52.303Z,97679.34
2023-01-15T14:09:18.852Z,97665.25
2023-01-15T14:12:00.592Z,97664.03
2023-01-15T14:14:45.479Z,97670.69
2023-01-15T14:17:36.717Z,97683.13
2023-01-15T14:20:44.412Z,97677.44
2023-01-15T14:23:14.128Z,97652.31
2023-01-15T14:25:49.599Z,97660.34
2023-01-15T14:28:35.359Z,97661.03
2023-01-15T14:31:13.484Z,97664.88
2023-01-15T14:33:49.083Z,97672.19
2023-01-15T14:36:23.761Z,97677.16
2023-01-15T14:39:02.988Z,97690.41
2023-01-15T14:41:59.419Z,97691.97
2023-01-15T14:44:34.057Z,97684.09
2023-01-15T14:47:06.641Z,97702.59
2023-01-15T14:49:49.658Z,97688.50
2023-01-15T14:52:24.522Z,97700.09
2023-01-15T14:54:53.594Z,97694.16
2023-01-15T14:57:23.569Z,97690.81
2023-01-15T14:59:57.783Z,97691.19
2023-01-15T15:02:34.992Z,97700.84
2023-01-15T15:05:02.425Z,97706.94
2023-01-15T15:07:41.684Z,97711.47
2023-01-15T15:10:20.607Z,97713.53
2023-01-15T15:13:09.792Z,97725.66
2023-01-15T15:15:50.840Z,97701.84
2023-01-15T15:18:31.409Z,97710.41
2023-01-15T15:21:04.745Z,97716.66
2023-01-15T15:23:43.553Z,97717.00
2023-01-15T15:26:26.199Z,97723.06
2023-01-15T15:29:04.663Z,97720.00
2023-01-15T15:31:37.821Z,97726.19
2023-01-15T15:34:16.435Z,97731.44
2023-01-15T15:36:46.071Z,97721.91
2023-01-15T15:39:42.597Z,97718.59
2023-01-15T15:42:52.870Z,97725.63
2023-01-15T15:45:45.661Z,97728.25
2023-01-15T15:48:41.902Z,97715.13
2023-01-15T15:51:32.111Z,97744.69
2023-01-15T15:54:12.200Z,97706.97
2023-01-15T15:56:47.281Z,97717.63
2023-01-15T15:59:24.131Z,97720.00
2023-01-15T16:01:50.995Z,97711.66
2023-01-15T16:04:20.353Z,97715.97
2023-01-15T16:06:48.863Z,97716.66
2023-01-15T16:09:20.540Z,97709.75
2023-01-15T16:11:48.993Z,97710.22
2023-01-15T16:14:17.353Z,97709.25
2023-01-15T16:16:45.112Z,97700.66
2023-01-15T16:19:18.794Z,97710.22
2023-01-15T16:21:46.371Z,97703.53
2023-01-15T16:24:39.426Z,97719.28
2023-01-15T16:27:14.256Z,97711.16
2023-01-15T16:29:41.031Z,97720.00
2023-01-15T16:32:13.120Z,97716.91
2023-01-15T16:34:40.531Z,97723.84
2023-01-15T16:37:34.097Z,97717.13
2023-01-15T16:40:05.914Z,97721.81
2023-01-15T16:42:40.137Z,97720.75
2023-01-15T16:45:20.621Z,97721.56
2023-01-15T16:48:10.618Z,97716.31
2023-01-15T16:50:39.547Z,97714.28
2023-01-15T16:53:27.101Z,97710.81
2023-01-15T16:55:56.947Z,97711.41
2023-01-15T16:58:41.465Z,97722.72
2023-01-15T17:01:42.431Z,97717.47
2023-01-15T17:04:27.408Z,97714.28
2023-01-15T17:07:13.616Z,97719.75
2023-01-15T17:09:46.508Z,97716.19
2023-01-15T17:12:32.498Z,97719.06
2023-01-15T17:15:14.573Z,97714.78
2023-01-15T17:17:45.561Z,97736.94
2023-01-15T17:20:13.703Z,97737.22
2023-01-15T17:22:46.163Z,97737.09
2023-01-15T17:25:26.148Z,97729.22
2023-01-15T17:27:54.878Z,97739.47
2023-01-15T17:30:22.909Z,97746.03
2023-01-15T17:32:49.512Z,97739.25
2023-01-15T17:35:23.501Z,97737.69
2023-01-15T17:37:50.592Z,97740.06
2023-01-15T17:40:17.824Z,97730.41
2023-01-15T17:42:45.212Z,97738.53
2023-01-15T17:45:30.377Z,97738.28
2023-01-15T17:47:57.214Z,97730.66
2023-01-15T17:50:24.006Z,97733.63
2023-01-15T17:52:51.556Z,97728.16
2023-01-15T17:55:39.377Z,97735.91
2023-01-15T17:58:24.783Z,97725.78
2023-01-15T18:01:11.529Z,97738.16
2023-01-15T18:04:03.578Z,97736.28
2023-01-15T18:06:30.488Z,97738.53
2023-01-15T18:09:00.347Z,97739.84
2023-01-15T18:11:27.068Z,97730.78
2023-01-15T18:13:55.714Z,97727.31
2023-01-15T18:16:23.148Z,97728.88
2023-01-15T18:18:52.765Z,97721.94
2023-01-15T18:21:20.569Z,97722.78
2023-01-15T18:23:47.520Z,97743.41
2023-01-15T18:26:14.459Z,97729.25
2023-01-15T18:28:41.224Z,97728.88
2023-01-15T18:31:08.189Z,97731.50
2023-01-15T18:33:35.310Z,97733.50
2023-01-15T18:36:20.153Z,97746.50
2023-01-15T18:38:49.713Z,97736.97
2023-01-15T18:41:36.535Z,97739.84
2023-01-15T18:44:21.920Z,97733.66
2023-01-15T18:46:52.815Z,97732.94
2023-01-15T18:49:20.216Z,97740.19
2023-01-15T18:52:05.901Z,97745.81
2023-01-15T18:54:32.519Z,97733.41
2023-01-15T18:56:59.493Z,97738.75
2023-01-15T18:59:26.289Z,97731.16
2023-01-15T19:01:53.111Z,97740.31
2023-01-15T19:04:20.514Z,97747.25
2023-01-15T19:06:47.694Z,97750.81
2023-01-15T19:09:16.786Z,97740.19
2023-01-15T19:11:47.511Z,97736.75
2023-01-15T19:14:32.715Z,97748.66
2023-01-15T19:17:18.207Z,97738.41
2023-01-15T19:19:44.821Z,97740.91
2023-01-15T19:22:30.427Z,97738.41
2023-01-15T19:24:57.131Z,97735.91
2023-01-15T19:27:24.010Z,97735.78
2023-01-15T19:29:50.918Z,97742.72
2023-01-15T19:32:17.719Z,97739.84
2023-01-15T19:34:44.516Z,97741.03
2023-01-15T19:37:11.411Z,97736.72
2023-01-15T19:39:38.070Z,97737.47
2023-01-15T19:42:23.285Z,97741.28
2023-01-15T19:45:08.665Z,97744.97
2023-01-15T19:47:56.647Z,97735.19
2023-01-15T19:50:45.722Z,97755.25
2023-01-15T19:53:13.267Z,97756.56
2023-01-15T19:55:43.738Z,97759.16
2023-01-15T19:58:12.448Z,97740.66
2023-01-15T20:00:43.607Z,97740.09
2023-01-15T20:03:12.316Z,97734.38
2023-01-15T20:05:41.219Z,97738.78
2023-01-15T20:08:12.733Z,97736.72
2023-01-15T20:10:43.995Z,97737.47
2023-01-15T20:13:32.638Z,97741.88
2023-01-15T20:16:06.696Z,97731.38
2023-01-15T20:18:33.417Z,97724.81
2023-01-15T20:21:00.105Z,97729.13
2023-01-15T20:23:26.940Z,97737.94
2023-01-15T20:25:53.804Z,97731.97
2023-01-15T20:28:20.776Z,97727.34
2023-01-15T20:30:48.487Z,97721.97
2023-01-15T20:33:15.189Z,97717.31
2023-01-15T20:35:41.805Z,97726.03
2023-01-15T20:38:08.508Z,97723.75
2023-01-15T20:40:35.136Z,97713.38
2023-01-15T20:43:20.669Z,97710.28
2023-01-15T20:45:47.402Z,97710.28
2023-01-15T20:48:14.131Z,97712.56
2023-01-15T20:50:43.933Z,97716.72
2023-01-15T20:53:11.139Z,97709.78
2023-01-15T20:55:55.728Z,97701.44
2023-01-15T20:58:24.549Z,97696.94
2023-01-15T21:00:52.093Z,97699.41
2023-01-15T21:03:19.179Z,97684.78
2023-01-15T21:05:46.842Z,97683.31
2023-01-15T21:08:14.044Z,97684.41
2023-01-15T21:10:41.666Z,97682.38
2023-01-15T21:13:08.993Z,97668.22
2023-01-15T21:15:36.039Z,97669.03
2023-01-15T21:18:02.773Z,97664.75
2023-01-15T21:20:30.481Z,97662.59
2023-01-15T21:22:58.265Z,97661.25
2023-01-15T21:25:25.710Z,97651.88
2023-01-15T21:27:52.752Z,97646.84
2023-01-15T21:30:20.936Z,97653.75
2023-01-15T21:32:48.787Z,97648.78
2023-01-15T21:35:15.701Z,97647.09
2023-01-15T21:37:42.504Z,97655.44
2023-01-15T21:40:10.063Z,97639.72
2023-01-15T21:42:55.098Z,97640.78
2023-01-15T21:45:22.264Z,97644.72
2023-01-15T21:47:49.023Z,97634.72
2023-01-15T21:50:17.659Z,97636.25
2023-01-15T21:52:44.474Z,97637.72
2023-01-15T21:55:11.214Z,97632.47
2023-01-15T21:57:38.455Z,97625.31
2023-01-15T22:00:08.025Z,97621.03
2023-01-15T22:02:35.870Z,97611.34
2023-01-15T22:05:04.362Z,97626.13
2023-01-15T22:07:31.104Z,97615.78
2023-01-15T22:09:57.933Z,97621.16
2023-01-15T22:12:24.682Z,97609.34
2023-01-15T22:14:53.792Z,97611.72
2023-01-15T22:17:20.607Z,97613.75
2023-01-15T22:19:53.086Z,97606.84
2023-01-15T22:22:19.945Z,97599.94
2023-01-15T22:24:46.692Z,97595.41
2023-01-15T22:27:16.455Z,97593.28
2023-01-15T22:29:46.103Z,97594.69
2023-01-15T22:32:16.147Z,97594.69
2023-01-15T22:34:43.652Z,97592.78
2023-01-15T22:37:13.456Z,97585.66
2023-01-15T22:39:40.139Z,97584.34
2023-01-15T22:42:25.303Z,97588.97
2023-01-15T22:44:52.300Z,97586.84
2023-01-15T22:47:20.107Z,97591.44
2023-01-15T22:49:46.938Z,97577.75
2023-01-15T22:52:13.996Z,97582.53
2023-01-15T22:54:44.721Z,97576.44
2023-01-15T22:57:12.591Z,97577.28
2023-01-15T22:59:39.645Z,97578.94
2023-01-15T23:02:06.684Z,97573.22
2023-01-15T23:04:33.611Z,97573.69
2023-01-15T23:07:00.564Z,97565.56
2023-01-15T23:09:27.757Z,97570.09
2023-01-15T23:11:54.488Z,97567.47
2023-01-15T23:14:21.829Z,97573.56
2023-01-15T23:16:49.374Z,97561.53
2023-01-15T23:19:16.955Z,97563.75
2023-01-15T23:21:43.700Z,97556.72
2023-01-15T23:24:11.330Z,97557.91
2023-01-15T23:26:38.177Z,97545.75
2023-01-15T23:29:05.271Z,97548.38
2023-01-15T23:31:32.677Z,97544.34
2023-01-15T23:33:59.504Z,97551.13
2023-01-15T23:36:26.207Z,97542.16
2023-01-15T23:38:53.109Z,97546.25
2023-01-15T23:41:45.372Z,97538.41
2023-01-15T23:44:35.839Z,97528.91
2023-01-15T23:47:02.507Z,97530.81
2023-01-15T23:49:29.451Z,97532.97
2023-01-15T23:51:59.042Z,97532.97
2023-01-15T23:54:28.813Z,97528.56
2023-01-15T23:56:56.722Z,97521.91
2023-01-15T23:59:23.660Z,97516.53
